createdAt,value
2023-05-05T00:00:09.926Z,101329.60
2023-05-05T00:03:23.045Z,101329.86
2023-05-05T00:06:00.509Z,101326.05
2023-05-05T00:08:38.058Z,101320.34
2023-05-05T00:11:15.241Z,101320.12
2023-05-05T00:13:52.219Z,101322.31
2023-05-05T00:16:25.759Z,101325.76
2023-05-05T00:18:59.676Z,101323.34
2023-05-05T00:21:33.900Z,101326.25
2023-05-05T00:24:12.797Z,101324.54
2023-05-05T00:26:50.268Z,101321.67
2023-05-05T00:29:28.150Z,101322.61
2023-05-05T00:32:07.859Z,101320.86
2023-05-05T00:34:45.127Z,101316.48
2023-05-05T00:37:17.622Z,101317.84
2023-05-05T00:39:55.270Z,101320.52
2023-05-05T00:42:46.136Z,101323.04
2023-05-05T00:45:23.557Z,101322.85
2023-05-05T00:48:05.172Z,101318.70
2023-05-05T00:50:45.341Z,101322.17
2023-05-05T00:53:23.029Z,101325.55
2023-05-05T00:56:00.349Z,101327.23
2023-05-05T00:58:38.266Z,101326.49
2023-05-05T01:01:16.872Z,101325.00
2023-05-05T01:03:54.130Z,101328.11
2023-05-05T01:07:40.700Z,101323.06
2023-05-05T01:10:26.423Z,101325.96
2023-05-05T01:13:24.925Z,101323.51
2023-05-05T01:16:26.954Z,101321.62
2023-05-05T01:19:46.158Z,101319.75
2023-05-05T01:22:25.107Z,101312.86
2023-05-05T01:25:40.104Z,101308.21
2023-05-05T01:28:55.751Z,101308.27
2023-05-05T01:31:55.561Z,101302.82
2023-05-05T01:34:46.883Z,101313.48
2023-05-05T01:37:42.604Z,101313.35
2023-05-05T01:40:23.445Z,101310.55
2023-05-05T01:43:01.490Z,101302.21
2023-05-05T01:45:41.793Z,101297.84
2023-05-05T01:48:19.552Z,101296.73
2023-05-05T01:50:56.378Z,101294.84
2023-05-05T01:53:36.247Z,101300.96
2023-05-05T01:56:15.673Z,101298.67
2023-05-05T01:58:54.631Z,101297.80
2023-05-05T02:01:33.363Z,101297.01
2023-05-05T02:04:13.951Z,101297.29
2023-05-05T02:06:53.510Z,101296.02
2023-05-05T02:09:38.003Z,101294.84
2023-05-05T02:12:16.809Z,101296.48
2023-05-05T02:14:55.342Z,101300.64
2023-05-05T02:17:33.260Z,101293.64
2023-05-05T02:20:14.369Z,101293.12
2023-05-05T02:22:50.282Z,101290.41
2023-05-05T02:25:34.336Z,101286.14
2023-05-05T02:28:23.184Z,101281.55
2023-05-05T02:31:01.276Z,101282.45
2023-05-05T02:33:39.727Z,101278.16
2023-05-05T02:36:21.611Z,101282.80
2023-05-05T02:39:06.778Z,101281.05
2023-05-05T02:41:44.650Z,101282.87
2023-05-05T02:44:20.220Z,101270.13
2023-05-05T02:46:59.166Z,101277.13
2023-05-05T02:49:38.785Z,101275.30
2023-05-05T02:52:16.393Z,101275.08
2023-05-05T02:54:58.956Z,101271.95
2023-05-05T02:58:12.123Z,101269.52
2023-05-05T03:01:09.741Z,101272.81
2023-05-05T03:04:17.373Z,101269.98
2023-05-05T03:07:05.968Z,101268.55
2023-05-05T03:10:22.870Z,101268.06
2023-05-05T03:13:08.364Z,101265.06
2023-05-05T03:15:53.340Z,101261.23
2023-05-05T03:18:32.080Z,101260.20
2023-05-05T03:21:11.278Z,101266.00
2023-05-05T03:23:43.808Z,101266.23
2023-05-05T03:26:19.598Z,101266.02
2023-05-05T03:28:57.700Z,101265.36
2023-05-05T03:31:35.046Z,101265.83
2023-05-05T03:34:12.943Z,101269.08
2023-05-05T03:36:50.069Z,101270.92
2023-05-05T03:39:28.026Z,101268.02
2023-05-05T03:42:06.989Z,101268.55
2023-05-05T03:44:43.935Z,101274.92
2023-05-05T03:47:21.454Z,101267.10
2023-05-05T03:49:58.841Z,101267.06
2023-05-05T03:52:36.121Z,101272.02
2023-05-05T03:55:14.288Z,101268.31
2023-05-05T03:57:50.101Z,101271.79
2023-05-05T04:00:22.176Z,101269.48
2023-05-05T04:03:00.798Z,101265.95
2023-05-05T04:05:31.515Z,101272.52
2023-05-05T04:08:10.594Z,101274.96
2023-05-05T04:10:47.291Z,101275.92
2023-05-05T04:13:24.207Z,101277.24
2023-05-05T04:16:01.599Z,101280.76
2023-05-05T04:18:39.167Z,101287.16
2023-05-05T04:21:15.853Z,101295.30
2023-05-05T04:23:53.245Z,101308.89
2023-05-05T04:26:24.045Z,101314.57
2023-05-05T04:29:03.739Z,101316.83
2023-05-05T04:31:41.683Z,101317.80
2023-05-05T04:34:19.136Z,101318.27
2023-05-05T04:36:56.076Z,101321.23
2023-05-05T04:39:26.691Z,101326.41
2023-05-05T04:42:04.642Z,101328.25
2023-05-05T04:44:41.623Z,101330.17
2023-05-05T04:47:18.803Z,101333.58
2023-05-05T04:49:57.985Z,101335.93
2023-05-05T04:52:34.383Z,101336.69
2023-05-05T04:55:06.703Z,101340.79
2023-05-05T04:57:42.581Z,101340.44
2023-05-05T05:00:20.588Z,101342.11
2023-05-05T05:02:59.100Z,101342.12
2023-05-05T05:05:37.380Z,101343.64
2023-05-05T05:08:17.345Z,101341.10
2023-05-05T05:10:54.259Z,101344.80
2023-05-05T05:13:30.844Z,101345.27
2023-05-05T05:16:09.042Z,101339.02
2023-05-05T05:18:45.862Z,101337.70
2023-05-05T05:21:24.046Z,101338.89
2023-05-05T05:24:01.541Z,101335.70
2023-05-05T05:26:38.723Z,101337.79
2023-05-05T05:29:15.482Z,101334.37
2023-05-05T05:31:47.569Z,101336.33
2023-05-05T05:34:23.370Z,101336.36
2023-05-05T05:37:01.019Z,101336.62
2023-05-05T05:39:37.993Z,101333.37
2023-05-05T05:42:15.151Z,101335.58
2023-05-05T05:44:51.995Z,101337.04
2023-05-05T05:47:28.838Z,101340.39
2023-05-05T05:50:07.388Z,101340.77
2023-05-05T05:52:44.872Z,101342.38
2023-05-05T05:55:22.083Z,101342.34
2023-05-05T05:57:58.800Z,101340.27
2023-05-05T06:00:31.573Z,101337.70
2023-05-05T06:03:05.310Z,101335.87
2023-05-05T06:05:43.101Z,101331.55
2023-05-05T06:08:21.678Z,101327.52
2023-05-05T06:11:01.336Z,101321.61
2023-05-05T06:13:39.424Z,101323.85
2023-05-05T06:16:17.947Z,101325.27
2023-05-05T06:18:55.969Z,101324.99
2023-05-05T06:21:33.116Z,101329.89
2023-05-05T06:24:12.334Z,101329.55
2023-05-05T06:26:49.866Z,101328.84
2023-05-05T06:29:28.430Z,101327.84
2023-05-05T06:32:08.695Z,101329.11
2023-05-05T06:34:47.605Z,101330.16
2023-05-05T06:37:25.485Z,101332.49
2023-05-05T06:40:03.213Z,101331.84
2023-05-05T06:42:41.712Z,101333.30
2023-05-05T06:45:19.387Z,101333.68
2023-05-05T06:47:56.941Z,101333.41
2023-05-05T06:50:27.273Z,101334.52
2023-05-05T06:53:05.604Z,101335.55
2023-05-05T06:55:46.937Z,101337.61
2023-05-05T06:58:25.663Z,101336.15
2023-05-05T07:01:04.886Z,101336.09
2023-05-05T07:03:44.461Z,101342.68
2023-05-05T07:06:23.327Z,101338.04
2023-05-05T07:09:02.290Z,101336.23
2023-05-05T07:11:40.809Z,101340.59
2023-05-05T07:14:20.097Z,101342.59
2023-05-05T07:17:00.424Z,101350.70
2023-05-05T07:19:39.065Z,101346.63
2023-05-05T07:22:17.320Z,101349.63
2023-05-05T07:24:55.358Z,101349.52
2023-05-05T07:27:38.650Z,101350.68
2023-05-05T07:30:19.047Z,101351.06
2023-05-05T07:33:00.973Z,101347.02
2023-05-05T07:35:39.096Z,101345.96
2023-05-05T07:38:17.523Z,101342.46
2023-05-05T07:40:56.288Z,101339.77
2023-05-05T07:43:42.328Z,101342.84
2023-05-05T07:46:23.428Z,101338.47
2023-05-05T07:49:01.389Z,101342.14
2023-05-05T07:51:39.584Z,101347.30
2023-05-05T07:54:18.803Z,101348.85
2023-05-05T07:56:57.863Z,101350.91
2023-05-05T07:59:36.644Z,101343.48
2023-05-05T08:02:15.617Z,101340.17
2023-05-05T08:04:53.213Z,101338.23
2023-05-05T08:07:32.200Z,101343.65
2023-05-05T08:10:13.931Z,101345.80
2023-05-05T08:12:52.221Z,101348.52
2023-05-05T08:15:30.481Z,101352.08
2023-05-05T08:18:09.918Z,101358.88
2023-05-05T08:20:49.669Z,101360.45
2023-05-05T08:23:28.021Z,101358.60
2023-05-05T08:26:00.256Z,101360.73
2023-05-05T08:28:34.308Z,101361.16
2023-05-05T08:31:09.877Z,101358.57
2023-05-05T08:33:48.890Z,101361.42
2023-05-05T08:36:27.710Z,101361.75
2023-05-05T08:39:07.679Z,101358.53
2023-05-05T08:41:47.162Z,101351.25
2023-05-05T08:44:27.469Z,101356.41
2023-05-05T08:47:07.621Z,101356.54
2023-05-05T08:49:50.171Z,101356.77
2023-05-05T08:52:34.883Z,101358.45
2023-05-05T08:55:41.549Z,101355.65
2023-05-05T08:58:23.285Z,101350.44
2023-05-05T09:01:02.287Z,101352.85
2023-05-05T09:03:43.544Z,101352.36
2023-05-05T09:06:28.706Z,101356.90
2023-05-05T09:09:07.799Z,101358.11
2023-05-05T09:11:50.892Z,101356.53
2023-05-05T09:14:30.547Z,101363.73
2023-05-05T09:17:24.570Z,101360.67
2023-05-05T09:20:17.856Z,101365.41
2023-05-05T09:22:58.580Z,101365.34
2023-05-05T09:25:38.768Z,101359.66
2023-05-05T09:28:21.567Z,101364.13
2023-05-05T09:31:12.531Z,101363.98
2023-05-05T09:33:50.782Z,101359.70
2023-05-05T09:36:50.892Z,101359.03
2023-05-05T09:39:29.324Z,101364.61
2023-05-05T09:42:09.799Z,101360.17
2023-05-05T09:44:49.090Z,101359.65
2023-05-05T09:47:38.290Z,101359.30
2023-05-05T09:50:19.376Z,101358.55
2023-05-05T09:53:04.754Z,101360.20
2023-05-05T09:55:43.412Z,101361.48
2023-05-05T09:58:31.980Z,101354.52
2023-05-05T10:01:25.767Z,101358.45
2023-05-05T10:04:04.634Z,101357.08
2023-05-05T10:06:50.797Z,101356.16
2023-05-05T10:09:29.899Z,101361.38
2023-05-05T10:12:08.286Z,101361.31
2023-05-05T10:14:47.894Z,101359.54
2023-05-05T10:17:31.074Z,101357.23
2023-05-05T10:20:13.772Z,101360.63
2023-05-05T10:22:58.016Z,101366.20
2023-05-05T10:25:52.450Z,101367.59
2023-05-05T10:28:34.706Z,101368.46
2023-05-05T10:31:26.329Z,101369.45
2023-05-05T10:34:23.280Z,101373.67
2023-05-05T10:37:06.771Z,101366.71
2023-05-05T10:39:47.716Z,101363.83
2023-05-05T10:42:28.371Z,101359.60
2023-05-05T10:45:10.913Z,101361.95
2023-05-05T10:47:51.632Z,101355.13
2023-05-05T10:50:44.310Z,101358.16
2023-05-05T10:53:38.948Z,101363.05
2023-05-05T10:56:35.258Z,101362.65
2023-05-05T10:59:46.955Z,101359.84
2023-05-05T11:02:35.055Z,101362.34
2023-05-05T11:05:24.709Z,101359.60
2023-05-05T11:07:54.907Z,101362.95
2023-05-05T11:10:47.948Z,101360.55
2023-05-05T11:13:27.071Z,101362.90
2023-05-05T11:16:05.984Z,101359.10
2023-05-05T11:18:40.134Z,101361.59
2023-05-05T11:21:17.773Z,101358.10
2023-05-05T11:23:55.030Z,101355.67
2023-05-05T11:26:52.232Z,101356.60
2023-05-05T11:29:50.874Z,101351.96
2023-05-05T11:32:43.148Z,101353.52
2023-05-05T11:35:16.008Z,101363.81
2023-05-05T11:38:05.476Z,101361.18
2023-05-05T11:40:41.138Z,101358.42
2023-05-05T11:43:23.442Z,101362.48
2023-05-05T11:46:19.148Z,101357.42
2023-05-05T11:48:59.650Z,101355.17
2023-05-05T11:51:39.423Z,101353.68
2023-05-05T11:54:24.520Z,101356.06
2023-05-05T11:57:10.968Z,101363.08
2023-05-05T12:00:09.529Z,101359.48
2023-05-05T12:02:49.078Z,101358.77
2023-05-05T12:05:27.835Z,101357.54
2023-05-05T12:08:01.368Z,101360.43
2023-05-05T12:10:36.218Z,101356.02
2023-05-05T12:13:20.368Z,101358.31
2023-05-05T12:15:57.067Z,101351.67
2023-05-05T12:18:35.708Z,101357.34
2023-05-05T12:21:23.654Z,101350.56
2023-05-05T12:23:57.021Z,101348.02
2023-05-05T12:26:36.213Z,101352.64
2023-05-05T12:29:07.481Z,101351.33
2023-05-05T12:31:47.088Z,101357.39
2023-05-05T12:34:26.766Z,101355.11
2023-05-05T12:37:06.277Z,101359.55
2023-05-05T12:39:46.212Z,101357.40
2023-05-05T12:42:17.534Z,101357.21
2023-05-05T12:44:57.931Z,101349.83
2023-05-05T12:47:45.849Z,101350.68
2023-05-05T12:50:36.601Z,101353.90
2023-05-05T12:53:28.036Z,101357.88
2023-05-05T12:55:58.972Z,101363.01
2023-05-05T12:58:52.646Z,101366.38
2023-05-05T13:01:31.725Z,101368.88
2023-05-05T13:04:18.617Z,101366.79
2023-05-05T13:07:17.063Z,101361.47
2023-05-05T13:10:11.162Z,101362.08
2023-05-05T13:12:42.611Z,101365.95
2023-05-05T13:15:19.151Z,101367.08
2023-05-05T13:18:08.434Z,101363.29
2023-05-05T13:20:39.132Z,101369.79
2023-05-05T13:23:17.821Z,101377.45
2023-05-05T13:25:57.606Z,101375.97
2023-05-05T13:28:35.907Z,101363.48
2023-05-05T13:31:15.449Z,101370.27
2023-05-05T13:33:54.859Z,101364.18
2023-05-05T13:36:35.221Z,101363.67
2023-05-05T13:39:14.120Z,101364.52
2023-05-05T13:41:53.238Z,101368.55
2023-05-05T13:44:32.098Z,101372.34
2023-05-05T13:47:15.044Z,101367.84
2023-05-05T13:49:54.249Z,101366.59
2023-05-05T13:52:33.611Z,101363.88
2023-05-05T13:55:15.004Z,101354.61
2023-05-05T13:57:54.469Z,101355.91
2023-05-05T14:00:35.134Z,101356.58
2023-05-05T14:03:14.800Z,101356.05
2023-05-05T14:05:54.338Z,101352.17
2023-05-05T14:08:25.345Z,101353.29
2023-05-05T14:10:56.315Z,101350.46
2023-05-05T14:13:35.398Z,101355.84
2023-05-05T14:16:14.235Z,101356.75
2023-05-05T14:18:47.851Z,101364.70
2023-05-05T14:21:20.254Z,101366.17
2023-05-05T14:23:58.343Z,101363.62
2023-05-05T14:26:37.241Z,101365.55
2023-05-05T14:29:09.011Z,101362.44
2023-05-05T14:31:47.614Z,101372.08
2023-05-05T14:34:26.385Z,101371.84
2023-05-05T14:37:04.481Z,101369.36
2023-05-05T14:39:43.397Z,101365.33
2023-05-05T14:42:21.992Z,101360.73
2023-05-05T14:45:00.596Z,101359.73
2023-05-05T14:47:40.804Z,101362.08
2023-05-05T14:50:19.512Z,101358.86
2023-05-05T14:52:57.852Z,101358.84
2023-05-05T14:55:37.076Z,101358.73
2023-05-05T14:58:16.000Z,101361.77
2023-05-05T15:00:55.292Z,101356.41
2023-05-05T15:03:34.454Z,101359.93
2023-05-05T15:06:12.484Z,101369.16
2023-05-05T15:08:42.600Z,101369.95
2023-05-05T15:11:22.471Z,101375.38
2023-05-05T15:14:01.154Z,101371.83
2023-05-05T15:16:40.847Z,101372.81
2023-05-05T15:19:21.482Z,101372.98
2023-05-05T15:22:00.747Z,101373.81
2023-05-05T15:24:40.089Z,101373.90
2023-05-05T15:27:18.623Z,101375.98
2023-05-05T15:29:57.476Z,101375.60
2023-05-05T15:32:36.698Z,101378.63
2023-05-05T15:35:15.339Z,101378.61
2023-05-05T15:37:55.398Z,101381.48
2023-05-05T15:40:33.900Z,101381.69
2023-05-05T15:43:14.057Z,101382.16
2023-05-05T15:45:50.267Z,101379.50
2023-05-05T15:48:30.030Z,101378.80
2023-05-05T15:51:09.774Z,101387.77
2023-05-05T15:53:47.961Z,101387.23
2023-05-05T15:56:28.659Z,101385.11
2023-05-05T15:59:05.248Z,101386.73
2023-05-05T16:01:43.153Z,101379.83
2023-05-05T16:04:21.692Z,101380.28
2023-05-05T16:07:00.385Z,101381.20
2023-05-05T16:09:38.726Z,101380.48
2023-05-05T16:12:16.684Z,101386.55
2023-05-05T16:14:54.556Z,101384.14
2023-05-05T16:17:25.003Z,101379.81
2023-05-05T16:20:04.783Z,101378.58
2023-05-05T16:22:43.269Z,101377.29
2023-05-05T16:25:22.733Z,101381.97
2023-05-05T16:28:03.834Z,101376.73
2023-05-05T16:30:43.670Z,101377.11
2023-05-05T16:33:27.537Z,101379.79
2023-05-05T16:36:04.327Z,101379.83
2023-05-05T16:38:45.811Z,101371.18
2023-05-05T16:41:34.699Z,101378.77
2023-05-05T16:44:09.469Z,101377.88
2023-05-05T16:46:54.513Z,101372.23
2023-05-05T16:49:29.011Z,101375.80
2023-05-05T16:52:05.693Z,101372.73
2023-05-05T16:54:44.524Z,101374.84
2023-05-05T16:57:26.696Z,101372.05
2023-05-05T17:00:05.249Z,101377.79
2023-05-05T17:02:44.322Z,101379.57
2023-05-05T17:05:23.005Z,101376.11
2023-05-05T17:07:55.500Z,101379.37
2023-05-05T17:10:33.858Z,101377.95
2023-05-05T17:13:15.717Z,101384.88
2023-05-05T17:15:54.585Z,101385.83
2023-05-05T17:18:26.520Z,101389.17
2023-05-05T17:21:07.108Z,101383.03
2023-05-05T17:23:46.306Z,101392.66
2023-05-05T17:26:24.865Z,101393.13
2023-05-05T17:28:55.023Z,101393.21
2023-05-05T17:31:26.367Z,101396.69
2023-05-05T17:34:05.285Z,101398.60
2023-05-05T17:36:44.549Z,101396.86
2023-05-05T17:39:23.524Z,101400.71
2023-05-05T17:41:54.673Z,101404.47
2023-05-05T17:44:33.336Z,101407.42
2023-05-05T17:47:13.824Z,101409.92
2023-05-05T17:49:54.243Z,101414.64
2023-05-05T17:52:33.730Z,101418.88
2023-05-05T17:55:14.552Z,101420.01
2023-05-05T17:57:53.202Z,101423.27
2023-05-05T18:00:31.668Z,101427.64
2023-05-05T18:03:12.346Z,101428.64
2023-05-05T18:05:52.195Z,101424.94
2023-05-05T18:08:22.802Z,101429.48
2023-05-05T18:11:01.235Z,101430.73
2023-05-05T18:13:32.135Z,101430.80
2023-05-05T18:16:07.548Z,101432.70
2023-05-05T18:18:45.546Z,101433.34
2023-05-05T18:21:24.504Z,101434.90
2023-05-05T18:24:15.584Z,101437.02
2023-05-05T18:27:01.183Z,101443.95
2023-05-05T18:29:40.189Z,101444.00
2023-05-05T18:32:13.057Z,101440.55
2023-05-05T18:34:47.615Z,101448.80
2023-05-05T18:37:26.076Z,101451.98
2023-05-05T18:40:05.135Z,101460.21
2023-05-05T18:42:44.055Z,101457.23
2023-05-05T18:45:23.638Z,101458.17
2023-05-05T18:48:01.793Z,101462.70
2023-05-05T18:50:41.121Z,101459.51
2023-05-05T18:53:21.229Z,101459.33
2023-05-05T18:55:59.546Z,101458.30
2023-05-05T18:58:38.485Z,101451.82
2023-05-05T19:01:17.306Z,101456.95
2023-05-05T19:03:56.857Z,101458.33
2023-05-05T19:06:35.510Z,101462.97
2023-05-05T19:09:14.990Z,101462.52
2023-05-05T19:11:53.489Z,101464.50
2023-05-05T19:14:32.262Z,101464.29
2023-05-05T19:17:11.781Z,101463.94
2023-05-05T19:19:49.754Z,101468.97
2023-05-05T19:22:28.148Z,101465.23
2023-05-05T19:25:06.652Z,101465.91
2023-05-05T19:27:46.086Z,101468.44
2023-05-05T19:30:24.342Z,101465.29
2023-05-05T19:33:02.711Z,101452.52
2023-05-05T19:35:37.792Z,101461.66
2023-05-05T19:38:12.613Z,101457.91
2023-05-05T19:40:46.956Z,101459.59
2023-05-05T19:43:25.052Z,101463.04
2023-05-05T19:46:02.690Z,101465.00
2023-05-05T19:48:41.112Z,101465.30
2023-05-05T19:51:20.254Z,101465.31
2023-05-05T19:53:59.894Z,101464.23
2023-05-05T19:56:39.253Z,101463.80
2023-05-05T19:59:18.107Z,101464.64
2023-05-05T20:01:56.327Z,101461.30
2023-05-05T20:04:34.374Z,101462.97
2023-05-05T20:07:13.192Z,101458.43
2023-05-05T20:09:51.566Z,101462.86
2023-05-05T20:12:29.286Z,101464.60
2023-05-05T20:15:07.930Z,101462.55
2023-05-05T20:17:46.986Z,101458.48
2023-05-05T20:20:25.729Z,101457.27
2023-05-05T20:23:03.711Z,101455.48
2023-05-05T20:25:35.552Z,101454.25
2023-05-05T20:28:11.245Z,101453.29
2023-05-05T20:30:47.124Z,101457.21
2023-05-05T20:33:26.190Z,101459.52
2023-05-05T20:36:04.600Z,101459.05
2023-05-05T20:38:42.484Z,101458.27
2023-05-05T20:41:20.951Z,101454.52
2023-05-05T20:43:59.202Z,101454.30
2023-05-05T20:46:34.629Z,101453.81
2023-05-05T20:49:13.655Z,101446.90
2023-05-05T20:51:52.200Z,101462.70
2023-05-05T20:54:39.892Z,101461.58
2023-05-05T20:57:17.924Z,101465.50
2023-05-05T20:59:57.023Z,101463.41
2023-05-05T21:02:34.667Z,101467.44
2023-05-05T21:05:14.265Z,101466.85
2023-05-05T21:07:52.142Z,101455.70
2023-05-05T21:10:22.723Z,101461.84
2023-05-05T21:12:53.454Z,101465.65
2023-05-05T21:15:32.657Z,101464.15
2023-05-05T21:18:12.442Z,101462.92
2023-05-05T21:20:50.704Z,101460.75
2023-05-05T21:23:28.586Z,101459.08
2023-05-05T21:26:07.361Z,101462.88
2023-05-05T21:28:46.616Z,101467.11
2023-05-05T21:31:24.430Z,101469.55
2023-05-05T21:33:54.578Z,101473.81
2023-05-05T21:36:34.086Z,101475.77
2023-05-05T21:39:13.841Z,101475.61
2023-05-05T21:41:51.591Z,101471.83
2023-05-05T21:44:29.510Z,101475.67
2023-05-05T21:47:07.654Z,101475.74
2023-05-05T21:49:44.973Z,101482.30
2023-05-05T21:52:14.995Z,101478.38
2023-05-05T21:54:52.874Z,101476.92
2023-05-05T21:57:31.441Z,101477.18
2023-05-05T22:00:10.305Z,101475.46
2023-05-05T22:02:48.814Z,101460.48
2023-05-05T22:05:26.658Z,101470.63
2023-05-05T22:08:05.212Z,101467.67
2023-05-05T22:10:43.062Z,101466.38
2023-05-05T22:13:21.459Z,101470.17
2023-05-05T22:15:59.117Z,101465.44
2023-05-05T22:18:37.744Z,101464.39
2023-05-05T22:21:15.772Z,101463.17
2023-05-05T22:23:54.425Z,101464.92
2023-05-05T22:26:32.891Z,101463.72
2023-05-05T22:29:12.001Z,101469.23
2023-05-05T22:31:47.385Z,101473.50
2023-05-05T22:34:26.273Z,101467.74
2023-05-05T22:37:05.159Z,101463.52
2023-05-05T22:39:43.920Z,101462.98
2023-05-05T22:42:23.896Z,101458.95
2023-05-05T22:45:01.944Z,101455.46
2023-05-05T22:47:33.538Z,101453.95
2023-05-05T22:50:10.407Z,101456.53
2023-05-05T22:52:48.895Z,101463.20
2023-05-05T22:55:28.836Z,101461.84
2023-05-05T22:58:07.437Z,101459.75
2023-05-05T23:00:45.360Z,101459.90
2023-05-05T23:03:24.269Z,101459.98
2023-05-05T23:06:02.687Z,101459.02
2023-05-05T23:08:42.032Z,101459.66
2023-05-05T23:11:20.848Z,101462.27
2023-05-05T23:13:58.984Z,101462.09
2023-05-05T23:16:37.099Z,101455.92
2023-05-05T23:19:16.149Z,101453.73
2023-05-05T23:21:54.661Z,101454.88
2023-05-05T23:24:25.377Z,101452.08
2023-05-05T23:27:05.430Z,101449.86
2023-05-05T23:29:44.727Z,101451.14
2023-05-05T23:32:21.082Z,101450.59
2023-05-05T23:34:52.242Z,101456.21
2023-05-05T23:37:31.278Z,101456.34
2023-05-05T23:40:11.129Z,101444.15
2023-05-05T23:42:49.852Z,101444.92
2023-05-05T23:45:30.300Z,101444.41
2023-05-05T23:48:10.172Z,101444.98
2023-05-05T23:50:48.107Z,101447.08
2023-05-05T23:53:26.057Z,101448.57
2023-05-05T23:56:04.962Z,101450.88
2023-05-05T23:58:43.737Z,101454.16
